Tropical Cyclones
[Index]
Main Index Home Page Stock Weather Photos Extreme Storms Discussion Storm News and Storm Chasing Reports Tropical Cyclones / Hurricanes / Typhoons Weather Data and Links Wild Fires / Bushfires Weather Observation Techniques Weather Picture Catalogue Tornado Pictures and Reports Stock Video Footage and DVDs for sale
Season 1968-1969 Tropical Cyclone ADELE Track Map
Season 1968-1969 Summaries: [BoM-AU] [JTWC-AU] [JTWC-SIO] [JTWC-SPAC] [JTWC-SH]
<<- Previous TC | JTWC 1968-1969 Season | Next TC ->>

click for intensity scale information  Lat/long Grid: Show Hide

 Date Labels: Show Hide

Joint Typhoon Warning Centre Cyclone Data

Name: ADELE
Number: 681 / 6903

23 Nov 1968 00:00 UTC to 28 Nov 1968 18:00 UTC

    date/time    lat    long     hPa   cat  kts
1968-11-23 00    9.3   153.1                  10          
1968-11-23 06    9.8   152.6                  20          
1968-11-23 12   10.4   152.1                  20          
1968-11-23 18   11.1   151.8                  15          
1968-11-24 00   11.8   151.6                  10          
1968-11-24 06   12.4   151.5                  10          
1968-11-24 12   12.9   151.5                  10          
1968-11-24 18   13.4   151.7                  10          
1968-11-25 00   13.9   152.0                  10          
1968-11-25 06   14.3   152.4                  15          
1968-11-25 12   14.8   152.8                  20          
1968-11-25 18   15.1   153.2                  25          
1968-11-26 00   15.5   153.5                  30          
1968-11-26 06   16.0   153.7                  25          
1968-11-26 12   16.6   153.8                  20          
1968-11-26 18   17.1   154.0                  25          
1968-11-27 00   17.6   154.1                  30          
1968-11-27 06   18.2   154.1                  25          
1968-11-27 12   18.8   154.1                  20          
1968-11-27 18   19.5   154.0                  15          
1968-11-28 00   19.8   154.0                  15          
1968-11-28 06   19.9   154.0                  15          
1968-11-28 12   19.9   154.0                  15          
1968-11-28 18   20.0   154.0                  15          
Winds are 1-min average.

Tropical cyclone tracks developed by Michael Bath using data from the Joint Typhoon Warning Centre Best Tracks and Google Maps.


[Australian Severe Weather index] [Copyright Notice] [Email Contacts] [Search This Site] [Privacy Policy]
Document: tropical_cyclone_adele.htm Updated: 18 September 2016